Austin Reinauer — WCX8055 — position and weather

sailwx.info

Track history (hours):
 
Tides and Currents Weather Stations Pressure Air Temp Water Temp Dewpoint Dewpoint Depression Visibility Wind Speed Wind Dir Waves Ship Positions

Austin Reinauer

Owner: REINAUER TRANSPORTATION CO, LP, STATEN ISLAND, NY. More information available from US FCC via Universal Licensing System and Coast Guard Vessel Documentation Center.

Last reported at 2017-May-22 19:36 UTC. Time now 2017-May-22 23:14 UTC.
Position N 40°53' W 073°42'.

Length 33 m; draft 6.7 m.

Type: . MMSI: 366739920.

Date/timePositionNaut miles runAvg speedWind from/ knotsBaromVisibWave heightAir tempDewpointWater temp
2017-May-22 19:36N 40°53' W 073°42'1 9.4
2017-May-22 19:30N 40°53' W 073°43'5 9.5
2017-May-22 19:00N 40°49' W 073°47'4 8.4
2017-May-22 18:30N 40°48' W 073°52'3 7.1
2017-May-22 18:00N 40°46' W 073°57'3 6.9
2017-May-22 17:30N 40°43' W 073°58'3 5.3
2017-May-22 17:00N 40°41' W 074°01'3 6.2
2017-May-22 16:30N 40°39' W 074°03'2 4.9
2017-May-22 16:01N 40°39' W 074°07'0 0.2
2017-May-22 15:28N 40°39' W 074°07'0 0.0
2017-May-22 14:58N 40°39' W 074°07'0 0.0
2017-May-22 13:58N 40°39' W 074°07'0 0.0
2017-May-22 13:28N 40°39' W 074°07'0 0.0
2017-May-22 12:58N 40°39' W 074°07'0 0.0
2017-May-22 12:28N 40°39' W 074°07'0 0.0
2017-May-22 11:58N 40°39' W 074°07'0 0.0
2017-May-22 11:28N 40°39' W 074°07'0 0.0
2017-May-22 10:58N 40°39' W 074°07'0 0.0
2017-May-22 10:28N 40°39' W 074°07'0 1.1
2017-May-22 10:00N 40°39' W 074°07'1 1.0
2017-May-22 09:30N 40°39' W 074°07'0 0.0
2017-May-22 09:00N 40°39' W 074°07'0 0.0
2017-May-22 08:30N 40°39' W 074°07'0 0.0
2017-May-22 08:00N 40°39' W 074°07'0 0.0
2017-May-22 07:30N 40°39' W 074°07'0 0.0
2017-May-22 07:00N 40°39' W 074°07'0 0.0
2017-May-22 06:30N 40°39' W 074°07'0 0.0
2017-May-22 06:00N 40°39' W 074°07'0 0.0
2017-May-22 05:30N 40°39' W 074°07'0 0.0
2017-May-22 05:00N 40°39' W 074°07'0 0.0
2017-May-22 04:30N 40°39' W 074°07'0 0.0
2017-May-22 04:00N 40°39' W 074°07'0 0.0
2017-May-22 03:30N 40°39' W 074°07'0 0.0
2017-May-22 03:00N 40°39' W 074°07'0 0.0
2017-May-22 02:30N 40°39' W 074°07'0 0.0
2017-May-22 02:00N 40°39' W 074°07'0 0.0
2017-May-22 01:30N 40°39' W 074°07'0 0.0
2017-May-22 01:00N 40°39' W 074°07'0 0.0
2017-May-22 00:30N 40°39' W 074°07'0 0.0
2017-May-21 23:57N 40°39' W 074°07'0 0.0
2017-May-21 23:30N 40°39' W 074°07'0 0.0
2017-May-21 23:00N 40°39' W 074°07'0 0.0
2017-May-21 22:30N 40°39' W 074°07'0 0.0
2017-May-21 22:00N 40°39' W 074°07'0 0.0
2017-May-21 21:30N 40°39' W 074°07'0 0.0
2017-May-21 21:00N 40°39' W 074°07'0 0.0
2017-May-21 20:30N 40°39' W 074°07'0 0.0
2017-May-21 20:00N 40°39' W 074°07'0 0.0
2017-May-21 19:30N 40°39' W 074°07'0 0.0
2017-May-21 19:00N 40°39' W 074°07'0 0.0
2017-May-21 18:30N 40°39' W 074°07'0 0.0
2017-May-21 18:00N 40°39' W 074°07'0 0.0
2017-May-21 17:30N 40°39' W 074°07'0 0.0
2017-May-21 16:59N 40°39' W 074°07'0 0.0
2017-May-21 16:29N 40°39' W 074°07'0 0.0
2017-May-21 15:59N 40°39' W 074°07'0 0.0
2017-May-21 15:29N 40°39' W 074°07'0 0.0
2017-May-21 14:59N 40°39' W 074°07'0 0.1
2017-May-21 13:59N 40°39' W 074°07'0 0.0
2017-May-21 13:29N 40°39' W 074°07'0 0.0
2017-May-21 12:59N 40°39' W 074°07'0 0.0
2017-May-21 12:29N 40°39' W 074°07'0 0.0
2017-May-21 11:59N 40°39' W 074°07'0 0.0
2017-May-21 11:29N 40°39' W 074°07'0 0.0
2017-May-21 10:59N 40°39' W 074°07'0 0.0
2017-May-21 10:29N 40°39' W 074°07'0 0.1
2017-May-21 09:59N 40°39' W 074°07'0 0.0
2017-May-21 09:29N 40°39' W 074°07'0 0.0
2017-May-21 08:59N 40°39' W 074°07'0 0.0
2017-May-21 08:29N 40°39' W 074°07'0 0.0
2017-May-21 07:59N 40°39' W 074°07'0 0.0
2017-May-21 07:29N 40°39' W 074°07'0 0.0
2017-May-21 06:59N 40°39' W 074°07'1 2.0
2017-May-21 06:30N 40°38' W 074°08'0 0.1
2017-May-21 05:56N 40°38' W 074°08'0 0.0
2017-May-21 05:29N 40°38' W 074°08'0 0.0
2017-May-21 04:59N 40°38' W 074°08'0 0.0
2017-May-21 04:29N 40°38' W 074°08'1 1.8
2017-May-21 03:58N 40°39' W 074°07'0 0.1
2017-May-21 03:28N 40°39' W 074°07'3 6.2
2017-May-21 02:59N 40°39' W 074°03'0 0.1
2017-May-21 02:29N 40°39' W 074°03'0 0.1
2017-May-21 01:59N 40°39' W 074°03'0 0.1
2017-May-21 01:29N 40°39' W 074°03'0 0.1
2017-May-21 00:59N 40°39' W 074°03'0 0.0
2017-May-21 00:29N 40°39' W 074°03'0 0.2
2017-May-20 23:59N 40°39' W 074°03'0 0.1
2017-May-20 23:29N 40°40' W 074°03'0 0.0
2017-May-20 23:00N 40°40' W 074°03'0 0.0
2017-May-20 22:30N 40°40' W 074°03'0 0.1
2017-May-20 22:00N 40°40' W 074°03'0 0.1
2017-May-20 21:30N 40°40' W 074°03'0 0.0
2017-May-20 21:00N 40°40' W 074°03'0 0.0
2017-May-20 20:30N 40°40' W 074°03'0 0.0
2017-May-20 20:00N 40°40' W 074°03'0 0.0
2017-May-20 19:30N 40°40' W 074°03'0 0.0
2017-May-20 19:00N 40°40' W 074°03'0 0.7
2017-May-20 18:30N 40°40' W 074°03'4 8.0
2017-May-20 18:00N 40°43' W 073°59'4 7.3
2017-May-20 17:30N 40°46' W 073°57'4 6.9
2017-May-20 16:59N 40°48' W 073°53'4 9.4
2017-May-20 16:30N 40°48' W 073°47'4810.0
2017-May-20 11:42N 41°05' W 072°48'510.9
2017-May-20 11:16N 41°06' W 072°42'310.8
2017-May-20 11:00N 41°07' W 072°38'611.5
2017-May-20 10:30N 41°09' W 072°31'611.8
2017-May-20 10:00N 41°11' W 072°23'611.8
2017-May-20 09:30N 41°12' W 072°16'4510.3
2017-May-20 05:10N 41°30' W 071°21'210.7
2017-May-20 05:00N 41°32' W 071°20'610.9
2017-May-20 04:29N 41°37' W 071°18'5 9.5
2017-May-20 03:59N 41°40' W 071°13'1 0.4
2017-May-20 01:52N 41°40' W 071°12'50 3.3
2017-May-19 10:29N 41°14' W 072°09'510.7
2017-May-19 10:00N 41°12' W 072°16'510.2
2017-May-19 09:30N 41°11' W 072°22'5 9.4
2017-May-19 09:00N 41°09' W 072°28'5 8.8
2017-May-19 08:27N 41°09' W 072°35'51 2.2
2017-May-18 09:05N 40°54' W 073°40'1 8.8
2017-May-18 09:00N 40°54' W 073°40'4 8.8
2017-May-18 08:30N 40°51' W 073°45'4 8.0
2017-May-18 08:00N 40°48' W 073°48'4 8.7
2017-May-18 07:31N 40°48' W 073°54'4 8.5
2017-May-18 07:00N 40°45' W 073°58'4 8.6
2017-May-18 06:31N 40°41' W 074°00'4 8.0
2017-May-18 06:01N 40°38' W 074°04'0 0.4
2017-May-18 05:31N 40°38' W 074°04'0 0.1
2017-May-18 05:01N 40°38' W 074°04'0 0.3
2017-May-18 04:31N 40°38' W 074°04'0 0.1
2017-May-18 04:01N 40°38' W 074°04'1 2.3
2017-May-18 03:31N 40°39' W 074°05'2 4.9
2017-May-18 03:00N 40°39' W 074°08'3 6.1
2017-May-18 02:31N 40°38' W 074°12'3 5.2
2017-May-18 02:00N 40°35' W 074°13'2 0.1
2017-May-16 23:29N 40°33' W 074°14'2 4.3
2017-May-16 23:00N 40°35' W 074°13'3 6.5
2017-May-16 22:30N 40°38' W 074°12'4 7.3
2017-May-16 22:00N 40°39' W 074°07'4 8.2
2017-May-16 21:30N 40°41' W 074°02'5 9.2
2017-May-16 21:00N 40°44' W 073°58'6 9.6
2017-May-16 20:24N 40°48' W 073°52'4 8.8
2017-May-16 19:55N 40°49' W 073°47'9 0.4
2017-May-15 19:34N 40°55' W 073°38'1 8.7
2017-May-15 19:30N 40°55' W 073°38'4 8.5
2017-May-15 19:00N 40°53' W 073°43'4 8.6
2017-May-15 18:30N 40°49' W 073°47'3 6.8
2017-May-15 18:01N 40°48' W 073°51'4 7.8
2017-May-15 17:30N 40°47' W 073°56'4 8.5
2017-May-15 17:01N 40°43' W 073°58'3 6.8
2017-May-15 16:31N 40°41' W 074°02'4 7.9
2017-May-15 16:00N 40°37' W 074°03'2 3.8
2017-May-15 15:29N 40°35' W 074°01'0 0.0
2017-May-15 14:59N 40°35' W 074°01'0 0.0
2017-May-15 13:59N 40°35' W 074°01'0 0.0
2017-May-15 13:29N 40°35' W 074°01'0 0.0
2017-May-15 12:59N 40°35' W 074°01'2 2.9
2017-May-15 12:24N 40°34' W 074°02'3 8.0
2017-May-15 12:00N 40°31' W 073°59'30 7.7
2017-May-15 08:05N 40°01' W 073°55'2 7.9
2017-May-15 07:52N 39°59' W 073°56'3 7.8
2017-May-15 07:29N 39°56' W 073°56'4 7.9
2017-May-15 07:00N 39°52' W 073°57'4 8.1
2017-May-15 06:29N 39°48' W 073°57'4 8.3
2017-May-15 05:58N 39°44' W 073°59'4 8.5
2017-May-15 05:30N 39°41' W 074°01'68 7.4
2017-May-14 20:15N 38°54' W 075°05'310.4
2017-May-14 20:00N 38°57' W 075°07'510.1
2017-May-14 19:30N 39°01' W 075°09'5 9.7
2017-May-14 19:00N 39°06' W 075°12'5 9.4
2017-May-14 18:30N 39°10' W 075°15'4 8.9
2017-May-14 18:00N 39°14' W 075°18'4 8.2
2017-May-14 17:30N 39°17' W 075°21'4 7.8
2017-May-14 17:00N 39°20' W 075°25'4 7.3
2017-May-14 16:30N 39°22' W 075°28'4 7.3
2017-May-14 16:00N 39°25' W 075°31'4 7.3
2017-May-14 15:30N 39°28' W 075°34'4 7.7
2017-May-14 15:00N 39°32' W 075°33'4 8.2
2017-May-14 14:30N 39°36' W 075°34'7 7.2
2017-May-14 13:30N 39°43' W 075°30'0 0.1
2017-May-14 13:00N 39°42' W 075°30'0 0.1
2017-May-14 12:30N 39°42' W 075°30'0 0.0
2017-May-14 12:00N 39°42' W 075°30'0 0.0
2017-May-14 11:30N 39°42' W 075°30'0 0.0
2017-May-14 11:00N 39°42' W 075°30'0 0.0
2017-May-14 10:30N 39°42' W 075°30'0 0.0
2017-May-14 10:00N 39°42' W 075°30'0 0.1
2017-May-14 09:30N 39°42' W 075°30'0 0.3
2017-May-14 09:00N 39°43' W 075°30'0 0.2
2017-May-14 08:30N 39°43' W 075°30'0 0.1
2017-May-14 08:00N 39°43' W 075°30'0 0.0
2017-May-14 07:30N 39°43' W 075°30'0 0.0
2017-May-14 07:00N 39°43' W 075°30'0 0.0
2017-May-14 06:30N 39°43' W 075°30'0 0.0
2017-May-14 06:00N 39°43' W 075°30'0 0.0
2017-May-14 05:30N 39°43' W 075°30'0 0.0
2017-May-14 05:00N 39°43' W 075°30'0 0.0
2017-May-14 04:30N 39°43' W 075°30'0 0.1
2017-May-14 04:00N 39°43' W 075°30'0 0.1
2017-May-14 03:30N 39°43' W 075°30'2 4.5
2017-May-14 03:00N 39°45' W 075°30'4 8.9
2017-May-14 02:30N 39°48' W 075°26'5 9.9
2017-May-14 02:00N 39°51' W 075°20'510.0
2017-May-14 01:30N 39°52' W 075°14'2 4.7
2017-May-14 01:00N 39°54' W 075°12'0 0.1
2017-May-14 00:30N 39°54' W 075°12'0 0.0
2017-May-14 00:00N 39°54' W 075°12'0 0.0
2017-May-13 23:30N 39°54' W 075°12'0 0.0
2017-May-13 23:00N 39°54' W 075°12'0 0.0
2017-May-13 22:30N 39°54' W 075°12'0 0.0
2017-May-13 22:00N 39°54' W 075°12'0 0.0
2017-May-13 21:30N 39°54' W 075°12'0 0.0
2017-May-13 21:00N 39°54' W 075°12'0 0.0
2017-May-13 20:30N 39°54' W 075°12'0 0.0
2017-May-13 20:00N 39°54' W 075°12'0 0.0
2017-May-13 19:30N 39°54' W 075°12'0 0.0
2017-May-13 19:00N 39°54' W 075°12'0 0.0
2017-May-13 18:30N 39°54' W 075°12'0 0.0
2017-May-13 18:00N 39°54' W 075°12'0 0.0
2017-May-13 17:30N 39°54' W 075°12'0 0.0
2017-May-13 17:00N 39°54' W 075°12'0 0.0
2017-May-13 16:30N 39°54' W 075°12'0 0.0
2017-May-13 16:00N 39°54' W 075°12'0 0.0
2017-May-13 15:30N 39°54' W 075°12'0 0.0
2017-May-13 15:00N 39°54' W 075°12'0 0.0
2017-May-13 14:30N 39°54' W 075°12'0 0.0
2017-May-13 13:30N 39°54' W 075°12'0 0.0
2017-May-13 13:00N 39°54' W 075°12'0 0.0
2017-May-13 12:30N 39°54' W 075°12'0 0.0
2017-May-13 12:00N 39°54' W 075°12'0 0.0
2017-May-13 11:30N 39°54' W 075°12'0 0.0
2017-May-13 11:00N 39°54' W 075°12'0 0.0
2017-May-13 10:30N 39°54' W 075°12'0 0.0
2017-May-13 10:00N 39°54' W 075°12'0 0.0
2017-May-13 09:30N 39°54' W 075°12'0 0.0
2017-May-13 09:00N 39°54' W 075°12'0 0.0
2017-May-13 08:30N 39°54' W 075°12'0 0.0
2017-May-13 08:00N 39°54' W 075°12'0 0.0
2017-May-13 07:30N 39°54' W 075°12'0 0.0
2017-May-13 07:00N 39°54' W 075°12'0 0.0
2017-May-13 06:30N 39°54' W 075°12'0 0.0
2017-May-13 06:00N 39°54' W 075°12'0 0.0
2017-May-13 05:30N 39°54' W 075°12'0 0.0
2017-May-13 05:00N 39°54' W 075°12'0 0.0
2017-May-13 04:30N 39°54' W 075°12'0 0.0
2017-May-13 04:00N 39°54' W 075°12'0 0.0
2017-May-13 03:30N 39°54' W 075°12'0 0.0
2017-May-13 03:00N 39°54' W 075°12'0 0.0
2017-May-13 02:30N 39°54' W 075°12'0 0.0
2017-May-13 02:00N 39°54' W 075°12'0 0.0
2017-May-13 01:30N 39°54' W 075°12'0 0.0
2017-May-13 01:00N 39°54' W 075°12'0 0.0
2017-May-13 00:30N 39°54' W 075°12'0 0.0
2017-May-13 00:00N 39°54' W 075°12'0 0.0
2017-May-12 23:30N 39°54' W 075°12'0 0.0
2017-May-12 23:00N 39°54' W 075°12'0 0.0
2017-May-12 22:30N 39°54' W 075°12'0 0.0
2017-May-12 22:00N 39°54' W 075°12'0 0.0
2017-May-12 21:30N 39°54' W 075°12'0 0.0
2017-May-12 21:00N 39°54' W 075°12'0 0.0
2017-May-12 20:30N 39°54' W 075°12'0 0.0
2017-May-12 20:00N 39°54' W 075°12'  
Track history (hours):
 
Tides and Currents Weather Stations Pressure Air Temp Water Temp Dewpoint Dewpoint Depression Visibility Wind Speed Wind Dir Waves Ship Positions

Austin Reinauer

Owner: REINAUER TRANSPORTATION CO, LP, STATEN ISLAND, NY. More information available from US FCC via Universal Licensing System and Coast Guard Vessel Documentation Center.

Last reported at 2017-May-22 19:36 UTC. Time now 2017-May-22 23:14 UTC.
Position N 40°53' W 073°42'.

Length 33 m; draft 6.7 m.

Type: . MMSI: 366739920.

Date/timePositionNaut miles runAvg speedWind from/ knotsBaromVisibWave heightAir tempDewpointWater temp
2017-May-22 19:36N 40°53' W 073°42'1 9.4
2017-May-22 19:30N 40°53' W 073°43'5 9.5
2017-May-22 19:00N 40°49' W 073°47'4 8.4
2017-May-22 18:30N 40°48' W 073°52'3 7.1
2017-May-22 18:00N 40°46' W 073°57'3 6.9
2017-May-22 17:30N 40°43' W 073°58'3 5.3
2017-May-22 17:00N 40°41' W 074°01'3 6.2
2017-May-22 16:30N 40°39' W 074°03'2 4.9
2017-May-22 16:01N 40°39' W 074°07'0 0.2
2017-May-22 15:28N 40°39' W 074°07'0 0.0
2017-May-22 14:58N 40°39' W 074°07'0 0.0
2017-May-22 13:58N 40°39' W 074°07'0 0.0
2017-May-22 13:28N 40°39' W 074°07'0 0.0
2017-May-22 12:58N 40°39' W 074°07'0 0.0
2017-May-22 12:28N 40°39' W 074°07'0 0.0
2017-May-22 11:58N 40°39' W 074°07'0 0.0
2017-May-22 11:28N 40°39' W 074°07'0 0.0
2017-May-22 10:58N 40°39' W 074°07'0 0.0
2017-May-22 10:28N 40°39' W 074°07'0 1.1
2017-May-22 10:00N 40°39' W 074°07'1 1.0
2017-May-22 09:30N 40°39' W 074°07'0 0.0
2017-May-22 09:00N 40°39' W 074°07'0 0.0
2017-May-22 08:30N 40°39' W 074°07'0 0.0
2017-May-22 08:00N 40°39' W 074°07'0 0.0
2017-May-22 07:30N 40°39' W 074°07'0 0.0
2017-May-22 07:00N 40°39' W 074°07'0 0.0
2017-May-22 06:30N 40°39' W 074°07'0 0.0
2017-May-22 06:00N 40°39' W 074°07'0 0.0
2017-May-22 05:30N 40°39' W 074°07'0 0.0
2017-May-22 05:00N 40°39' W 074°07'0 0.0
2017-May-22 04:30N 40°39' W 074°07'0 0.0
2017-May-22 04:00N 40°39' W 074°07'0 0.0
2017-May-22 03:30N 40°39' W 074°07'0 0.0
2017-May-22 03:00N 40°39' W 074°07'0 0.0
2017-May-22 02:30N 40°39' W 074°07'0 0.0
2017-May-22 02:00N 40°39' W 074°07'0 0.0
2017-May-22 01:30N 40°39' W 074°07'0 0.0
2017-May-22 01:00N 40°39' W 074°07'0 0.0
2017-May-22 00:30N 40°39' W 074°07'0 0.0
2017-May-21 23:57N 40°39' W 074°07'0 0.0
2017-May-21 23:30N 40°39' W 074°07'0 0.0
2017-May-21 23:00N 40°39' W 074°07'0 0.0
2017-May-21 22:30N 40°39' W 074°07'0 0.0
2017-May-21 22:00N 40°39' W 074°07'0 0.0
2017-May-21 21:30N 40°39' W 074°07'0 0.0
2017-May-21 21:00N 40°39' W 074°07'0 0.0
2017-May-21 20:30N 40°39' W 074°07'0 0.0
2017-May-21 20:00N 40°39' W 074°07'0 0.0
2017-May-21 19:30N 40°39' W 074°07'0 0.0
2017-May-21 19:00N 40°39' W 074°07'0 0.0
2017-May-21 18:30N 40°39' W 074°07'0 0.0
2017-May-21 18:00N 40°39' W 074°07'0 0.0
2017-May-21 17:30N 40°39' W 074°07'0 0.0
2017-May-21 16:59N 40°39' W 074°07'0 0.0
2017-May-21 16:29N 40°39' W 074°07'0 0.0
2017-May-21 15:59N 40°39' W 074°07'0 0.0
2017-May-21 15:29N 40°39' W 074°07'0 0.0
2017-May-21 14:59N 40°39' W 074°07'0 0.1
2017-May-21 13:59N 40°39' W 074°07'0 0.0
2017-May-21 13:29N 40°39' W 074°07'0 0.0
2017-May-21 12:59N 40°39' W 074°07'0 0.0
2017-May-21 12:29N 40°39' W 074°07'0 0.0
2017-May-21 11:59N 40°39' W 074°07'0 0.0
2017-May-21 11:29N 40°39' W 074°07'0 0.0
2017-May-21 10:59N 40°39' W 074°07'0 0.0
2017-May-21 10:29N 40°39' W 074°07'0 0.1
2017-May-21 09:59N 40°39' W 074°07'0 0.0
2017-May-21 09:29N 40°39' W 074°07'0 0.0
2017-May-21 08:59N 40°39' W 074°07'0 0.0
2017-May-21 08:29N 40°39' W 074°07'0 0.0
2017-May-21 07:59N 40°39' W 074°07'0 0.0
2017-May-21 07:29N 40°39' W 074°07'0 0.0
2017-May-21 06:59N 40°39' W 074°07'1 2.0
2017-May-21 06:30N 40°38' W 074°08'0 0.1
2017-May-21 05:56N 40°38' W 074°08'0 0.0
2017-May-21 05:29N 40°38' W 074°08'0 0.0
2017-May-21 04:59N 40°38' W 074°08'0 0.0
2017-May-21 04:29N 40°38' W 074°08'1 1.8
2017-May-21 03:58N 40°39' W 074°07'0 0.1
2017-May-21 03:28N 40°39' W 074°07'3 6.2
2017-May-21 02:59N 40°39' W 074°03'0 0.1
2017-May-21 02:29N 40°39' W 074°03'0 0.1
2017-May-21 01:59N 40°39' W 074°03'0 0.1
2017-May-21 01:29N 40°39' W 074°03'0 0.1
2017-May-21 00:59N 40°39' W 074°03'0 0.0
2017-May-21 00:29N 40°39' W 074°03'0 0.2
2017-May-20 23:59N 40°39' W 074°03'0 0.1
2017-May-20 23:29N 40°40' W 074°03'0 0.0
2017-May-20 23:00N 40°40' W 074°03'0 0.0
2017-May-20 22:30N 40°40' W 074°03'0 0.1
2017-May-20 22:00N 40°40' W 074°03'0 0.1
2017-May-20 21:30N 40°40' W 074°03'0 0.0
2017-May-20 21:00N 40°40' W 074°03'0 0.0
2017-May-20 20:30N 40°40' W 074°03'0 0.0
2017-May-20 20:00N 40°40' W 074°03'0 0.0
2017-May-20 19:30N 40°40' W 074°03'0 0.0
2017-May-20 19:00N 40°40' W 074°03'0 0.7
2017-May-20 18:30N 40°40' W 074°03'4 8.0
2017-May-20 18:00N 40°43' W 073°59'4 7.3
2017-May-20 17:30N 40°46' W 073°57'4 6.9
2017-May-20 16:59N 40°48' W 073°53'4 9.4
2017-May-20 16:30N 40°48' W 073°47'4810.0
2017-May-20 11:42N 41°05' W 072°48'510.9
2017-May-20 11:16N 41°06' W 072°42'310.8
2017-May-20 11:00N 41°07' W 072°38'611.5
2017-May-20 10:30N 41°09' W 072°31'611.8
2017-May-20 10:00N 41°11' W 072°23'611.8
2017-May-20 09:30N 41°12' W 072°16'4510.3
2017-May-20 05:10N 41°30' W 071°21'210.7
2017-May-20 05:00N 41°32' W 071°20'610.9
2017-May-20 04:29N 41°37' W 071°18'5 9.5
2017-May-20 03:59N 41°40' W 071°13'1 0.4
2017-May-20 01:52N 41°40' W 071°12'50 3.3
2017-May-19 10:29N 41°14' W 072°09'510.7
2017-May-19 10:00N 41°12' W 072°16'510.2
2017-May-19 09:30N 41°11' W 072°22'5 9.4
2017-May-19 09:00N 41°09' W 072°28'5 8.8
2017-May-19 08:27N 41°09' W 072°35'51 2.2
2017-May-18 09:05N 40°54' W 073°40'1 8.8
2017-May-18 09:00N 40°54' W 073°40'4 8.8
2017-May-18 08:30N 40°51' W 073°45'4 8.0
2017-May-18 08:00N 40°48' W 073°48'4 8.7
2017-May-18 07:31N 40°48' W 073°54'4 8.5
2017-May-18 07:00N 40°45' W 073°58'4 8.6
2017-May-18 06:31N 40°41' W 074°00'4 8.0
2017-May-18 06:01N 40°38' W 074°04'0 0.4
2017-May-18 05:31N 40°38' W 074°04'0 0.1
2017-May-18 05:01N 40°38' W 074°04'0 0.3
2017-May-18 04:31N 40°38' W 074°04'0 0.1
2017-May-18 04:01N 40°38' W 074°04'1 2.3
2017-May-18 03:31N 40°39' W 074°05'2 4.9
2017-May-18 03:00N 40°39' W 074°08'3 6.1
2017-May-18 02:31N 40°38' W 074°12'3 5.2
2017-May-18 02:00N 40°35' W 074°13'2 0.1
2017-May-16 23:29N 40°33' W 074°14'2 4.3
2017-May-16 23:00N 40°35' W 074°13'3 6.5
2017-May-16 22:30N 40°38' W 074°12'4 7.3
2017-May-16 22:00N 40°39' W 074°07'4 8.2
2017-May-16 21:30N 40°41' W 074°02'5 9.2
2017-May-16 21:00N 40°44' W 073°58'6 9.6
2017-May-16 20:24N 40°48' W 073°52'4 8.8
2017-May-16 19:55N 40°49' W 073°47'9 0.4
2017-May-15 19:34N 40°55' W 073°38'1 8.7
2017-May-15 19:30N 40°55' W 073°38'4 8.5
2017-May-15 19:00N 40°53' W 073°43'4 8.6
2017-May-15 18:30N 40°49' W 073°47'3 6.8
2017-May-15 18:01N 40°48' W 073°51'4 7.8
2017-May-15 17:30N 40°47' W 073°56'4 8.5
2017-May-15 17:01N 40°43' W 073°58'3 6.8
2017-May-15 16:31N 40°41' W 074°02'4 7.9
2017-May-15 16:00N 40°37' W 074°03'2 3.8
2017-May-15 15:29N 40°35' W 074°01'0 0.0
2017-May-15 14:59N 40°35' W 074°01'0 0.0
2017-May-15 13:59N 40°35' W 074°01'0 0.0
2017-May-15 13:29N 40°35' W 074°01'0 0.0
2017-May-15 12:59N 40°35' W 074°01'2 2.9
2017-May-15 12:24N 40°34' W 074°02'3 8.0
2017-May-15 12:00N 40°31' W 073°59'30 7.7
2017-May-15 08:05N 40°01' W 073°55'2 7.9
2017-May-15 07:52N 39°59' W 073°56'3 7.8
2017-May-15 07:29N 39°56' W 073°56'4 7.9
2017-May-15 07:00N 39°52' W 073°57'4 8.1
2017-May-15 06:29N 39°48' W 073°57'4 8.3
2017-May-15 05:58N 39°44' W 073°59'4 8.5
2017-May-15 05:30N 39°41' W 074°01'68 7.4
2017-May-14 20:15N 38°54' W 075°05'310.4
2017-May-14 20:00N 38°57' W 075°07'510.1
2017-May-14 19:30N 39°01' W 075°09'5 9.7
2017-May-14 19:00N 39°06' W 075°12'5 9.4
2017-May-14 18:30N 39°10' W 075°15'4 8.9
2017-May-14 18:00N 39°14' W 075°18'4 8.2
2017-May-14 17:30N 39°17' W 075°21'4 7.8
2017-May-14 17:00N 39°20' W 075°25'4 7.3
2017-May-14 16:30N 39°22' W 075°28'4 7.3
2017-May-14 16:00N 39°25' W 075°31'4 7.3
2017-May-14 15:30N 39°28' W 075°34'4 7.7
2017-May-14 15:00N 39°32' W 075°33'4 8.2
2017-May-14 14:30N 39°36' W 075°34'7 7.2
2017-May-14 13:30N 39°43' W 075°30'0 0.1
2017-May-14 13:00N 39°42' W 075°30'0 0.1
2017-May-14 12:30N 39°42' W 075°30'0 0.0
2017-May-14 12:00N 39°42' W 075°30'0 0.0
2017-May-14 11:30N 39°42' W 075°30'0 0.0
2017-May-14 11:00N 39°42' W 075°30'0 0.0
2017-May-14 10:30N 39°42' W 075°30'0 0.0
2017-May-14 10:00N 39°42' W 075°30'0 0.1
2017-May-14 09:30N 39°42' W 075°30'0 0.3
2017-May-14 09:00N 39°43' W 075°30'0 0.2
2017-May-14 08:30N 39°43' W 075°30'0 0.1
2017-May-14 08:00N 39°43' W 075°30'0 0.0
2017-May-14 07:30N 39°43' W 075°30'0 0.0
2017-May-14 07:00N 39°43' W 075°30'0 0.0
2017-May-14 06:30N 39°43' W 075°30'0 0.0
2017-May-14 06:00N 39°43' W 075°30'0 0.0
2017-May-14 05:30N 39°43' W 075°30'0 0.0
2017-May-14 05:00N 39°43' W 075°30'0 0.0
2017-May-14 04:30N 39°43' W 075°30'0 0.1
2017-May-14 04:00N 39°43' W 075°30'0 0.1
2017-May-14 03:30N 39°43' W 075°30'2 4.5
2017-May-14 03:00N 39°45' W 075°30'4 8.9
2017-May-14 02:30N 39°48' W 075°26'5 9.9
2017-May-14 02:00N 39°51' W 075°20'510.0
2017-May-14 01:30N 39°52' W 075°14'2 4.7
2017-May-14 01:00N 39°54' W 075°12'0 0.1
2017-May-14 00:30N 39°54' W 075°12'0 0.0
2017-May-14 00:00N 39°54' W 075°12'0 0.0
2017-May-13 23:30N 39°54' W 075°12'0 0.0
2017-May-13 23:00N 39°54' W 075°12'0 0.0
2017-May-13 22:30N 39°54' W 075°12'0 0.0
2017-May-13 22:00N 39°54' W 075°12'0 0.0
2017-May-13 21:30N 39°54' W 075°12'0 0.0
2017-May-13 21:00N 39°54' W 075°12'0 0.0
2017-May-13 20:30N 39°54' W 075°12'0 0.0
2017-May-13 20:00N 39°54' W 075°12'0 0.0
2017-May-13 19:30N 39°54' W 075°12'0 0.0
2017-May-13 19:00N 39°54' W 075°12'0 0.0
2017-May-13 18:30N 39°54' W 075°12'0 0.0
2017-May-13 18:00N 39°54' W 075°12'0 0.0
2017-May-13 17:30N 39°54' W 075°12'0 0.0
2017-May-13 17:00N 39°54' W 075°12'0 0.0
2017-May-13 16:30N 39°54' W 075°12'0 0.0
2017-May-13 16:00N 39°54' W 075°12'0 0.0
2017-May-13 15:30N 39°54' W 075°12'0 0.0
2017-May-13 15:00N 39°54' W 075°12'0 0.0
2017-May-13 14:30N 39°54' W 075°12'0 0.0
2017-May-13 13:30N 39°54' W 075°12'0 0.0
2017-May-13 13:00N 39°54' W 075°12'0 0.0
2017-May-13 12:30N 39°54' W 075°12'0 0.0
2017-May-13 12:00N 39°54' W 075°12'0 0.0
2017-May-13 11:30N 39°54' W 075°12'0 0.0
2017-May-13 11:00N 39°54' W 075°12'0 0.0
2017-May-13 10:30N 39°54' W 075°12'0 0.0
2017-May-13 10:00N 39°54' W 075°12'0 0.0
2017-May-13 09:30N 39°54' W 075°12'0 0.0
2017-May-13 09:00N 39°54' W 075°12'0 0.0
2017-May-13 08:30N 39°54' W 075°12'0 0.0
2017-May-13 08:00N 39°54' W 075°12'0 0.0
2017-May-13 07:30N 39°54' W 075°12'0 0.0
2017-May-13 07:00N 39°54' W 075°12'0 0.0
2017-May-13 06:30N 39°54' W 075°12'0 0.0
2017-May-13 06:00N 39°54' W 075°12'0 0.0
2017-May-13 05:30N 39°54' W 075°12'0 0.0
2017-May-13 05:00N 39°54' W 075°12'0 0.0
2017-May-13 04:30N 39°54' W 075°12'0 0.0
2017-May-13 04:00N 39°54' W 075°12'0 0.0
2017-May-13 03:30N 39°54' W 075°12'0 0.0
2017-May-13 03:00N 39°54' W 075°12'0 0.0
2017-May-13 02:30N 39°54' W 075°12'0 0.0
2017-May-13 02:00N 39°54' W 075°12'0 0.0
2017-May-13 01:30N 39°54' W 075°12'0 0.0
2017-May-13 01:00N 39°54' W 075°12'0 0.0
2017-May-13 00:30N 39°54' W 075°12'0 0.0
2017-May-13 00:00N 39°54' W 075°12'0 0.0
2017-May-12 23:30N 39°54' W 075°12'0 0.0
2017-May-12 23:00N 39°54' W 075°12'0 0.0
2017-May-12 22:30N 39°54' W 075°12'0 0.0
2017-May-12 22:00N 39°54' W 075°12'0 0.0
2017-May-12 21:30N 39°54' W 075°12'0 0.0
2017-May-12 21:00N 39°54' W 075°12'0 0.0
2017-May-12 20:30N 39°54' W 075°12'0 0.0
2017-May-12 20:00N 39°54' W 075°12'  

Dump ship's entire track history